createdAt,value
2018-05-03T00:00:59.696Z,87.95
2018-05-03T00:03:27.662Z,88.82
2018-05-03T00:05:55.528Z,88.75
2018-05-03T00:08:23.398Z,92.97
2018-05-03T00:10:51.361Z,88.78
2018-05-03T00:13:19.227Z,91.53
2018-05-03T00:15:47.094Z,90.07
2018-05-03T00:18:15.038Z,89.95
2018-05-03T00:20:43.031Z,84.18
2018-05-03T00:23:11.106Z,86.57
2018-05-03T00:25:38.969Z,89.47
2018-05-03T00:28:07.552Z,85.03
2018-05-03T00:30:35.417Z,87.00
2018-05-03T00:33:04.173Z,86.70
2018-05-03T00:35:32.071Z,85.80
2018-05-03T00:37:59.937Z,83.85
2018-05-03T00:40:27.804Z,85.38
2018-05-03T00:42:55.670Z,87.70
2018-05-03T00:45:23.535Z,89.95
2018-05-03T00:47:51.503Z,83.97
2018-05-03T00:50:19.472Z,87.40
2018-05-03T00:52:47.348Z,83.60
2018-05-03T00:55:15.207Z,87.80
2018-05-03T00:57:43.070Z,85.97
2018-05-03T01:00:11.043Z,85.62
2018-05-03T01:02:38.907Z,85.05
2018-05-03T01:05:07.590Z,83.82
2018-05-03T01:07:35.463Z,86.80
2018-05-03T01:10:03.322Z,82.10
2018-05-03T01:12:32.007Z,83.05
2018-05-03T01:14:59.874Z,87.07
2018-05-03T01:17:27.744Z,85.05
2018-05-03T01:19:55.606Z,86.97
2018-05-03T01:22:23.475Z,84.40
2018-05-03T01:24:51.443Z,86.22
2018-05-03T01:27:19.408Z,83.43
2018-05-03T01:29:47.280Z,83.37
2018-05-03T01:32:15.143Z,84.10
2018-05-03T01:34:43.112Z,83.60
2018-05-03T01:37:10.978Z,82.95
2018-05-03T01:39:38.910Z,79.80
2018-05-03T01:42:06.827Z,81.68
2018-05-03T01:44:34.780Z,81.35
2018-05-03T01:47:02.748Z,80.65
2018-05-03T01:49:30.615Z,82.95
2018-05-03T01:51:58.479Z,83.60
2018-05-03T01:54:26.351Z,81.95
2018-05-03T01:56:54.213Z,81.70
2018-05-03T01:59:22.077Z,85.03
2018-05-03T02:01:49.947Z,84.53
2018-05-03T02:04:17.814Z,84.10
2018-05-03T02:06:45.677Z,82.35
2018-05-03T02:09:14.363Z,85.12
2018-05-03T02:11:42.230Z,83.68
2018-05-03T02:14:10.131Z,84.37
2018-05-03T02:16:38.780Z,81.05
2018-05-03T02:19:06.649Z,81.85
2018-05-03T02:21:34.514Z,82.90
2018-05-03T02:24:02.355Z,84.18
2018-05-03T02:26:30.201Z,85.87
2018-05-03T02:28:58.110Z,82.80
2018-05-03T02:31:26.079Z,86.30
2018-05-03T02:33:53.946Z,85.43
2018-05-03T02:36:21.914Z,87.25
2018-05-03T02:38:49.884Z,83.28
2018-05-03T02:41:17.750Z,88.22
2018-05-03T02:43:45.728Z,84.70
2018-05-03T02:46:13.686Z,87.10
2018-05-03T02:48:41.554Z,84.05
2018-05-03T02:51:09.417Z,86.45
2018-05-03T02:53:37.287Z,84.87
2018-05-03T02:56:06.793Z,85.97
2018-05-03T02:58:46.535Z,84.87
2018-05-03T03:01:32.119Z,86.75
2018-05-03T03:04:29.889Z,83.12
2018-05-03T03:07:15.462Z,86.78
2018-05-03T03:10:09.851Z,84.07
2018-05-03T03:16:07.638Z,89.62
2018-05-03T03:18:53.116Z,87.18
2018-05-03T03:21:38.595Z,88.28
2018-05-03T03:24:33.905Z,84.37
2018-05-03T03:27:19.592Z,86.68
2018-05-03T03:33:26.387Z,87.03
2018-05-03T03:36:06.135Z,86.80
2018-05-03T03:38:45.774Z,88.78
2018-05-03T03:41:25.517Z,91.72
2018-05-03T03:44:05.262Z,86.15
2018-05-03T03:46:33.140Z,84.00
2018-05-03T03:49:00.994Z,84.45
2018-05-03T03:51:28.860Z,84.25
2018-05-03T03:53:56.831Z,83.28
2018-05-03T03:56:24.695Z,87.75
2018-05-03T03:58:52.562Z,85.50
2018-05-03T04:01:20.426Z,87.50
2018-05-03T04:03:48.397Z,85.45
2018-05-03T04:06:16.268Z,86.28
2018-05-03T04:08:44.133Z,85.20
2018-05-03T04:11:12.100Z,87.25
2018-05-03T04:13:39.961Z,86.05
2018-05-03T04:16:07.795Z,84.95
2018-05-03T04:18:47.695Z,86.03
2018-05-03T04:21:27.421Z,90.35
2018-05-03T04:24:09.012Z,82.93
2018-05-03T04:26:36.978Z,85.72
2018-05-03T04:29:04.908Z,85.70
2018-05-03T04:31:32.814Z,85.87
2018-05-03T04:34:00.884Z,85.10
2018-05-03T04:36:28.753Z,84.00
2018-05-03T04:38:56.616Z,85.78
2018-05-03T04:41:24.696Z,106.80
2018-05-03T04:43:52.552Z,84.25
2018-05-03T04:46:20.419Z,86.45
2018-05-03T04:48:48.287Z,85.57
2018-05-03T04:51:16.252Z,89.72
2018-05-03T04:53:44.178Z,84.95
2018-05-03T04:56:12.906Z,87.97
2018-05-03T04:58:53.144Z,87.12
2018-05-03T05:01:46.777Z,87.80
2018-05-03T05:04:15.417Z,87.85
2018-05-03T05:06:43.283Z,86.85
2018-05-03T05:09:11.149Z,88.10
2018-05-03T05:11:39.119Z,88.15
2018-05-03T05:14:07.089Z,97.10
2018-05-03T05:16:35.218Z,92.60
2018-05-03T05:19:02.998Z,93.20
2018-05-03T05:21:30.889Z,95.00
2018-05-03T05:23:58.757Z,94.87
2018-05-03T05:26:26.637Z,96.47
2018-05-03T05:28:54.399Z,102.45
2018-05-03T05:31:22.149Z,98.55
2018-05-03T05:33:50.018Z,90.93
2018-05-03T05:36:18.128Z,95.80
2018-05-03T05:38:46.866Z,93.80
2018-05-03T05:41:14.636Z,93.05
2018-05-03T05:43:42.504Z,99.28
2018-05-03T05:46:10.368Z,89.82
2018-05-03T05:48:38.235Z,96.85
2018-05-03T05:51:06.300Z,92.28
2018-05-03T05:53:34.172Z,94.93
2018-05-03T05:56:02.144Z,90.35
2018-05-03T05:58:30.109Z,89.25
2018-05-03T06:00:57.986Z,88.93
2018-05-03T06:03:25.949Z,90.25
2018-05-03T06:05:53.816Z,90.87
2018-05-03T06:08:21.676Z,90.72
2018-05-03T06:10:49.547Z,90.70
2018-05-03T06:13:17.416Z,90.57
2018-05-03T06:15:45.378Z,91.35
2018-05-03T06:18:13.213Z,90.82
2018-05-03T06:20:41.113Z,89.82
2018-05-03T06:23:09.077Z,91.22
2018-05-03T06:25:36.944Z,91.55
2018-05-03T06:28:04.914Z,91.47
2018-05-03T06:30:32.905Z,96.95
2018-05-03T06:33:00.956Z,93.90
2018-05-03T06:35:28.823Z,93.95
2018-05-03T06:37:56.900Z,91.30
2018-05-03T06:40:24.754Z,93.00
2018-05-03T06:42:52.814Z,90.65
2018-05-03T06:45:20.793Z,93.62
2018-05-03T06:47:48.663Z,91.25
2018-05-03T06:50:16.731Z,95.97
2018-05-03T06:52:44.701Z,96.72
2018-05-03T06:55:12.671Z,97.45
2018-05-03T06:57:40.537Z,94.82
2018-05-03T07:00:08.509Z,99.47
2018-05-03T07:02:36.477Z,103.90
2018-05-03T07:05:04.752Z,103.87
2018-05-03T07:07:32.730Z,99.45
2018-05-03T07:10:00.737Z,94.87
2018-05-03T07:12:28.669Z,97.68
2018-05-03T07:14:56.526Z,93.55
2018-05-03T07:17:24.388Z,93.43
2018-05-03T07:19:53.032Z,93.03
2018-05-03T07:22:21.051Z,94.50
2018-05-03T07:24:50.543Z,91.55
2018-05-03T07:27:18.523Z,92.12
2018-05-03T07:29:46.385Z,90.47
2018-05-03T07:32:14.559Z,93.85
2018-05-03T07:34:42.423Z,96.10
2018-05-03T07:37:10.494Z,97.28
2018-05-03T07:39:39.444Z,100.75
2018-05-03T07:42:07.463Z,108.10
2018-05-03T07:44:35.323Z,96.47
2018-05-03T07:47:03.184Z,96.57
2018-05-03T07:49:31.049Z,93.53
2018-05-03T07:51:58.917Z,91.63
2018-05-03T07:54:26.783Z,91.25
2018-05-03T07:56:54.753Z,90.75
2018-05-03T07:59:22.624Z,88.97
2018-05-03T08:01:51.424Z,88.50
2018-05-03T08:04:19.473Z,88.55
2018-05-03T08:06:47.342Z,86.25
2018-05-03T08:09:15.308Z,88.35
2018-05-03T08:11:43.278Z,88.43
2018-05-03T08:14:11.348Z,90.68
2018-05-03T08:16:39.424Z,87.20
2018-05-03T08:19:07.390Z,91.80
2018-05-03T08:21:35.355Z,93.35
2018-05-03T08:24:03.405Z,98.65
2018-05-03T08:26:31.293Z,95.18
2018-05-03T08:28:59.158Z,91.65
2018-05-03T08:31:27.029Z,94.90
2018-05-03T08:33:54.919Z,96.45
2018-05-03T08:36:23.535Z,99.70
2018-05-03T08:38:52.262Z,94.15
2018-05-03T08:41:20.135Z,100.90
2018-05-03T08:43:48.098Z,99.95
2018-05-03T08:46:16.785Z,98.82
2018-05-03T08:48:44.650Z,100.72
2018-05-03T08:51:12.480Z,96.45
2018-05-03T08:53:40.594Z,98.75
2018-05-03T08:56:09.271Z,97.22
2018-05-03T08:58:37.200Z,100.70
2018-05-03T09:01:05.211Z,97.47
2018-05-03T09:03:33.030Z,99.93
2018-05-03T09:06:00.939Z,97.32
2018-05-03T09:08:28.908Z,97.20
2018-05-03T09:10:56.777Z,95.18
2018-05-03T09:13:24.640Z,94.05
2018-05-03T09:15:52.571Z,93.97
2018-05-03T09:18:20.346Z,95.25
2018-05-03T09:20:48.240Z,92.78
2018-05-03T09:23:16.207Z,92.10
2018-05-03T09:25:44.384Z,94.50
2018-05-03T09:28:12.351Z,94.53
2018-05-03T09:30:40.328Z,98.28
2018-05-03T09:33:08.391Z,98.72
2018-05-03T09:35:36.259Z,100.00
2018-05-03T09:38:04.119Z,100.78
2018-05-03T09:40:32.092Z,99.68
2018-05-03T09:43:00.018Z,102.00
2018-05-03T09:45:28.028Z,103.87
2018-05-03T09:47:55.994Z,99.50
2018-05-03T09:50:23.861Z,100.75
2018-05-03T09:52:51.682Z,97.07
2018-05-03T09:55:19.697Z,95.05
2018-05-03T09:57:47.561Z,96.68
2018-05-03T10:00:15.429Z,96.72
2018-05-03T10:02:43.397Z,95.03
2018-05-03T10:05:11.222Z,98.93
2018-05-03T10:07:39.130Z,98.30
2018-05-03T10:10:06.994Z,95.03
2018-05-03T10:12:34.861Z,97.37
2018-05-03T10:15:02.934Z,98.20
2018-05-03T10:17:30.901Z,96.90
2018-05-03T10:19:58.873Z,95.78
2018-05-03T10:22:26.735Z,93.90
2018-05-03T10:24:54.600Z,90.12
2018-05-03T10:27:22.466Z,89.72
2018-05-03T10:29:50.343Z,89.78
2018-05-03T10:32:18.300Z,91.63
2018-05-03T10:34:46.268Z,87.15
2018-05-03T10:37:14.140Z,90.97
2018-05-03T10:39:42.001Z,86.07
2018-05-03T10:42:09.942Z,90.53
2018-05-03T10:44:37.837Z,92.05
2018-05-03T10:47:05.811Z,90.43
2018-05-03T10:49:33.673Z,91.32
2018-05-03T10:52:01.539Z,88.87
2018-05-03T10:54:29.408Z,90.90
2018-05-03T10:56:57.280Z,88.93
2018-05-03T10:59:25.137Z,90.82
2018-05-03T11:01:53.103Z,87.68
2018-05-03T11:04:21.032Z,85.82
2018-05-03T11:06:48.927Z,84.05
2018-05-03T11:09:16.803Z,83.87
2018-05-03T11:11:44.628Z,86.43
2018-05-03T11:14:12.652Z,81.80
2018-05-03T11:16:40.679Z,84.95
2018-05-03T11:19:08.539Z,80.30
2018-05-03T11:21:36.444Z,82.68
2018-05-03T11:24:04.237Z,80.45
2018-05-03T11:26:32.890Z,84.70
2018-05-03T11:29:00.861Z,80.90
2018-05-03T11:31:28.814Z,83.90
2018-05-03T11:33:56.695Z,82.40
2018-05-03T11:36:24.635Z,83.35
2018-05-03T11:38:52.535Z,84.75
2018-05-03T11:41:20.395Z,82.30
2018-05-03T11:43:48.272Z,81.25
2018-05-03T11:46:16.093Z,82.88
2018-05-03T11:48:44.054Z,84.00
2018-05-03T11:51:12.080Z,80.20
2018-05-03T11:53:40.851Z,79.28
2018-05-03T11:56:08.717Z,81.60
2018-05-03T11:58:36.604Z,79.65
2018-05-03T12:01:05.174Z,77.28
2018-05-03T12:03:33.245Z,80.30
2018-05-03T12:06:01.233Z,77.78
2018-05-03T12:08:29.890Z,83.57
2018-05-03T12:10:57.861Z,77.22
2018-05-03T12:13:25.827Z,82.90
2018-05-03T12:15:53.693Z,80.47
2018-05-03T12:18:21.665Z,80.55
2018-05-03T12:20:49.528Z,78.75
2018-05-03T12:23:17.398Z,79.25
2018-05-03T12:25:45.262Z,77.55
2018-05-03T12:28:13.082Z,80.57
2018-05-03T12:30:40.993Z,76.87
2018-05-03T12:33:08.860Z,78.22
2018-05-03T12:35:36.726Z,77.68
2018-05-03T12:38:04.590Z,79.35
2018-05-03T12:40:32.459Z,81.90
2018-05-03T12:43:00.434Z,77.00
2018-05-03T12:45:28.306Z,81.75
2018-05-03T12:47:56.272Z,79.12
2018-05-03T12:50:24.230Z,80.32
2018-05-03T12:52:52.096Z,77.95
2018-05-03T12:55:19.965Z,79.95
2018-05-03T12:57:47.836Z,78.00
2018-05-03T13:00:15.796Z,78.78
2018-05-03T13:02:43.619Z,79.65
2018-05-03T13:05:11.516Z,77.45
2018-05-03T13:07:39.504Z,78.20
2018-05-03T13:10:07.473Z,78.15
2018-05-03T13:12:35.349Z,77.80
2018-05-03T13:15:04.016Z,78.00
2018-05-03T13:17:31.894Z,78.35
2018-05-03T13:19:59.855Z,79.78
2018-05-03T13:22:27.922Z,78.12
2018-05-03T13:24:55.764Z,79.10
2018-05-03T13:27:23.653Z,79.40
2018-05-03T13:29:51.552Z,78.72
2018-05-03T13:32:20.310Z,80.57
2018-05-03T13:34:48.253Z,77.95
2018-05-03T13:37:16.142Z,77.78
2018-05-03T13:39:44.042Z,80.00
2018-05-03T13:42:12.694Z,76.93
2018-05-03T13:44:40.667Z,78.43
2018-05-03T13:47:08.633Z,80.03
2018-05-03T13:49:36.516Z,78.45
2018-05-03T13:52:04.446Z,79.18
2018-05-03T13:54:32.332Z,81.12
2018-05-03T13:57:00.219Z,77.47
2018-05-03T13:59:28.270Z,80.62
2018-05-03T14:01:56.340Z,78.53
2018-05-03T14:04:24.516Z,80.53
2018-05-03T14:06:52.420Z,77.65
2018-05-03T14:09:20.332Z,80.85
2018-05-03T14:11:48.317Z,77.65
2018-05-03T14:14:16.250Z,80.80
2018-05-03T14:16:44.255Z,77.65
2018-05-03T14:19:12.277Z,78.50
2018-05-03T14:21:40.395Z,80.07
2018-05-03T14:24:08.363Z,75.93
2018-05-03T14:26:36.235Z,79.62
2018-05-03T14:29:04.208Z,75.62
2018-05-03T14:31:32.049Z,82.60
2018-05-03T14:33:59.882Z,75.15
2018-05-03T14:36:27.814Z,81.78
2018-05-03T14:38:55.706Z,77.43
2018-05-03T14:41:24.396Z,78.03
2018-05-03T14:43:52.216Z,78.93
2018-05-03T14:46:20.102Z,80.05
2018-05-03T14:48:48.072Z,80.18
2018-05-03T14:51:16.018Z,78.20
2018-05-03T14:53:43.883Z,79.47
2018-05-03T14:56:11.913Z,76.25
2018-05-03T14:58:40.055Z,79.50
2018-05-03T15:01:08.852Z,78.00
2018-05-03T15:03:37.704Z,78.90
2018-05-03T15:06:05.571Z,79.28
2018-05-03T15:08:33.345Z,78.03
2018-05-03T15:11:01.202Z,78.87
2018-05-03T15:13:29.168Z,80.18
2018-05-03T15:15:57.116Z,78.72
2018-05-03T15:18:25.076Z,78.68
2018-05-03T15:20:53.074Z,77.95
2018-05-03T15:23:20.922Z,82.55
2018-05-03T15:25:48.811Z,77.97
2018-05-03T15:28:16.881Z,80.50
2018-05-03T15:30:44.741Z,80.55
2018-05-03T15:33:12.609Z,82.15
2018-05-03T15:35:40.577Z,80.07
2018-05-03T15:38:08.454Z,79.72
2018-05-03T15:40:36.451Z,78.87
2018-05-03T15:43:05.096Z,80.60
2018-05-03T15:45:32.975Z,81.15
2018-05-03T15:48:01.650Z,77.32
2018-05-03T15:50:29.518Z,80.85
2018-05-03T15:52:57.482Z,79.70
2018-05-03T15:55:25.457Z,80.80
2018-05-03T15:57:53.319Z,77.68
2018-05-03T16:00:21.290Z,81.93
2018-05-03T16:02:49.470Z,77.93
2018-05-03T16:05:17.530Z,80.93
2018-05-03T16:07:45.399Z,80.50
2018-05-03T16:10:13.472Z,77.15
2018-05-03T16:12:41.436Z,79.60
2018-05-03T16:15:09.306Z,78.03
2018-05-03T16:17:38.711Z,78.65
2018-05-03T16:20:06.676Z,76.15
2018-05-03T16:22:34.537Z,78.78
2018-05-03T16:25:02.407Z,77.80
2018-05-03T16:27:30.269Z,79.10
2018-05-03T16:29:58.313Z,78.97
2018-05-03T16:32:26.212Z,79.32
2018-05-03T16:34:54.038Z,76.47
2018-05-03T16:37:21.953Z,79.45
2018-05-03T16:39:49.862Z,77.00
2018-05-03T16:42:17.773Z,77.68
2018-05-03T16:44:45.747Z,77.47
2018-05-03T16:47:13.712Z,77.93
2018-05-03T16:49:41.679Z,78.18
2018-05-03T16:52:09.551Z,79.75
2018-05-03T16:54:37.471Z,78.12
2018-05-03T16:57:05.382Z,79.55
2018-05-03T16:59:33.247Z,79.75
2018-05-03T17:02:01.216Z,78.30
2018-05-03T17:04:29.159Z,80.00
2018-05-03T17:06:57.156Z,78.57
2018-05-03T17:09:25.017Z,81.63
2018-05-03T17:11:53.071Z,78.57
2018-05-03T17:14:20.957Z,79.72
2018-05-03T17:16:49.038Z,77.37
2018-05-03T17:19:18.439Z,79.20
2018-05-03T17:21:46.909Z,78.62
2018-05-03T17:24:14.881Z,79.32
2018-05-03T17:26:42.846Z,80.93
2018-05-03T17:29:10.732Z,78.60
2018-05-03T17:31:38.790Z,80.68
2018-05-03T17:34:06.758Z,79.75
2018-05-03T17:36:34.644Z,82.22
2018-05-03T17:39:03.677Z,78.03
2018-05-03T17:41:31.696Z,80.70
2018-05-03T17:43:59.548Z,77.97
2018-05-03T17:46:27.412Z,79.90
2018-05-03T17:48:55.280Z,78.20
2018-05-03T17:51:23.159Z,82.18
2018-05-03T17:53:51.338Z,79.57
2018-05-03T17:56:19.194Z,80.65
2018-05-03T17:58:47.804Z,78.50
2018-05-03T18:01:15.702Z,78.12
2018-05-03T18:03:43.567Z,79.25
2018-05-03T18:06:11.437Z,78.03
2018-05-03T18:08:39.404Z,79.53
2018-05-03T18:11:07.270Z,79.68
2018-05-03T18:13:35.325Z,79.72
2018-05-03T18:16:03.215Z,87.93
2018-05-03T18:18:31.031Z,82.57
2018-05-03T18:20:58.938Z,80.03
2018-05-03T18:23:26.898Z,81.95
2018-05-03T18:25:54.893Z,78.45
2018-05-03T18:28:22.741Z,79.87
2018-05-03T18:30:50.609Z,79.40
2018-05-03T18:33:18.546Z,79.07
2018-05-03T18:35:46.413Z,84.80
2018-05-03T18:38:14.312Z,81.37
2018-05-03T18:40:42.178Z,78.05
2018-05-03T18:43:10.037Z,79.78
2018-05-03T18:45:37.906Z,77.43
2018-05-03T18:48:05.738Z,78.47
2018-05-03T18:50:33.639Z,79.03
2018-05-03T18:53:01.478Z,83.37
2018-05-03T18:55:29.276Z,79.22
2018-05-03T18:57:57.141Z,78.57
2018-05-03T19:00:25.207Z,80.00
2018-05-03T19:02:53.069Z,76.22
2018-05-03T19:05:20.937Z,77.93
2018-05-03T19:07:48.802Z,79.50
2018-05-03T19:10:16.679Z,79.40
2018-05-03T19:12:44.643Z,79.43
2018-05-03T19:15:12.661Z,79.28
2018-05-03T19:17:40.578Z,79.12
2018-05-03T19:20:08.450Z,79.72
2018-05-03T19:22:36.316Z,83.68
2018-05-03T19:25:04.285Z,79.87
2018-05-03T19:27:32.143Z,79.57
2018-05-03T19:30:00.110Z,79.15
2018-05-03T19:32:27.894Z,81.90
2018-05-03T19:34:55.678Z,79.95
2018-05-03T19:37:24.218Z,81.80
2018-05-03T19:39:52.807Z,78.75
2018-05-03T19:42:20.724Z,81.80
2018-05-03T19:44:48.642Z,79.60
2018-05-03T19:47:16.606Z,78.87
2018-05-03T19:49:44.410Z,80.82
2018-05-03T19:52:13.156Z,79.07
2018-05-03T19:54:41.230Z,79.57
2018-05-03T19:57:09.458Z,78.50
2018-05-03T19:59:37.502Z,77.65
2018-05-03T20:02:06.781Z,79.60
2018-05-03T20:04:36.788Z,79.50
2018-05-03T20:07:04.961Z,79.32
2018-05-03T20:09:33.138Z,82.12
2018-05-03T20:12:01.209Z,78.15
2018-05-03T20:14:29.149Z,82.18
2018-05-03T20:16:57.216Z,76.82
2018-05-03T20:19:24.970Z,81.12
2018-05-03T20:21:52.778Z,77.37
2018-05-03T20:24:20.647Z,80.00
2018-05-03T20:26:48.608Z,78.28
2018-05-03T20:29:16.484Z,78.90
2018-05-03T20:31:44.352Z,79.20
2018-05-03T20:34:12.311Z,80.40
2018-05-03T20:36:40.277Z,81.00
2018-05-03T20:39:08.143Z,82.10
2018-05-03T20:41:35.965Z,80.47
2018-05-03T20:44:03.857Z,80.22
2018-05-03T20:46:31.844Z,83.37
2018-05-03T20:48:59.785Z,81.15
2018-05-03T20:51:27.695Z,80.00
2018-05-03T20:53:55.620Z,81.75
2018-05-03T20:56:23.511Z,81.43
2018-05-03T20:58:51.349Z,81.97
2018-05-03T21:01:19.249Z,79.43
2018-05-03T21:03:47.117Z,79.62
2018-05-03T21:06:14.951Z,81.28
2018-05-03T21:08:42.848Z,83.78
2018-05-03T21:11:10.721Z,84.10
2018-05-03T21:13:38.582Z,83.53
2018-05-03T21:16:06.447Z,82.12
2018-05-03T21:18:34.418Z,93.60
2018-05-03T21:21:02.388Z,83.00
2018-05-03T21:23:30.248Z,82.05
2018-05-03T21:25:58.115Z,82.68
2018-05-03T21:28:25.990Z,84.00
2018-05-03T21:30:53.849Z,88.63
2018-05-03T21:33:21.713Z,83.22
2018-05-03T21:35:49.582Z,80.93
2018-05-03T21:38:17.448Z,81.12
2018-05-03T21:40:45.316Z,81.65
2018-05-03T21:43:13.387Z,81.68
2018-05-03T21:45:42.171Z,81.05
2018-05-03T21:48:10.093Z,80.70
2018-05-03T21:50:38.005Z,78.15
2018-05-03T21:53:06.116Z,80.78
2018-05-03T21:55:34.873Z,83.22
2018-05-03T21:58:02.696Z,80.15
2018-05-03T22:00:30.595Z,82.28
2018-05-03T22:02:58.676Z,81.03
2018-05-03T22:05:26.534Z,83.18
2018-05-03T22:07:54.415Z,80.57
2018-05-03T22:10:23.095Z,81.72
2018-05-03T22:12:51.021Z,81.10
2018-05-03T22:15:18.927Z,91.55
2018-05-03T22:17:46.853Z,83.90
2018-05-03T22:20:14.867Z,83.57
2018-05-03T22:22:43.061Z,81.57
2018-05-03T22:25:11.719Z,79.32
2018-05-03T22:27:39.584Z,81.97
2018-05-03T22:30:07.552Z,79.20
2018-05-03T22:32:35.417Z,81.93
2018-05-03T22:35:03.400Z,80.47
2018-05-03T22:37:31.458Z,82.40
2018-05-03T22:39:59.427Z,79.97
2018-05-03T22:42:27.247Z,82.12
2018-05-03T22:44:55.164Z,79.70
2018-05-03T22:47:23.023Z,82.18
2018-05-03T22:49:51.007Z,80.40
2018-05-03T22:52:19.020Z,79.00
2018-05-03T22:54:47.058Z,80.68
2018-05-03T22:57:15.832Z,81.03
2018-05-03T22:59:43.795Z,79.55
2018-05-03T23:02:11.926Z,79.55
2018-05-03T23:04:40.044Z,80.12
2018-05-03T23:07:07.991Z,79.90
2018-05-03T23:09:35.880Z,81.93
2018-05-03T23:12:03.837Z,78.57
2018-05-03T23:14:31.904Z,81.85
2018-05-03T23:16:59.902Z,79.30
2018-05-03T23:19:28.791Z,81.25
2018-05-03T23:21:57.576Z,79.15
2018-05-03T23:24:26.554Z,85.38
2018-05-03T23:26:54.635Z,82.40
2018-05-03T23:29:22.685Z,83.07
2018-05-03T23:31:50.680Z,81.82
2018-05-03T23:34:19.442Z,78.03
2018-05-03T23:36:47.409Z,81.50
2018-05-03T23:39:15.384Z,78.60
2018-05-03T23:41:43.446Z,82.12
2018-05-03T23:44:11.423Z,80.65
2018-05-03T23:46:39.489Z,81.68
2018-05-03T23:49:07.328Z,84.13
2018-05-03T23:51:35.230Z,83.07
2018-05-03T23:54:03.201Z,82.18
2018-05-03T23:56:31.057Z,83.65
2018-05-03T23:58:58.936Z,84.87
